Map

Track Data

SID SEASON NUMBER BASIN SUBBASIN NAME ISO_TIME NATURE LAT LON WMO_WIND WMO_PRES WMO_AGENCY TRACK_TYPE DIST2LAND LANDFALL IFLAG USA_AGENCY USA_ATCF_ID USA_LAT USA_LON USA_RECORD USA_STATUS USA_WIND USA_PRES USA_SSHS USA_R34_NE USA_R34_SE USA_R34_SW USA_R34_NW USA_R50_NE USA_R50_SE USA_R50_SW USA_R50_NW USA_R64_NE USA_R64_SE USA_R64_SW USA_R64_NW USA_POCI USA_ROCI USA_RMW USA_EYE TOKYO_LAT TOKYO_LON TOKYO_GRADE TOKYO_WIND TOKYO_PRES TOKYO_R50_DIR TOKYO_R50_LONG TOKYO_R50_SHORT TOKYO_R30_DIR TOKYO_R30_LONG TOKYO_R30_SHORT TOKYO_LAND CMA_LAT CMA_LON CMA_CAT CMA_WIND CMA_PRES HKO_LAT HKO_LON HKO_CAT HKO_WIND HKO_PRES NEWDELHI_LAT NEWDELHI_LON NEWDELHI_GRADE NEWDELHI_WIND NEWDELHI_PRES NEWDELHI_CI NEWDELHI_DP NEWDELHI_POCI REUNION_LAT REUNION_LON REUNION_TYPE REUNION_WIND REUNION_PRES REUNION_TNUM REUNION_CI REUNION_RMW REUNION_R34_NE REUNION_R34_SE REUNION_R34_SW REUNION_R34_NW REUNION_R50_NE REUNION_R50_SE REUNION_R50_SW REUNION_R50_NW REUNION_R64_NE REUNION_R64_SE REUNION_R64_SW REUNION_R64_NW BOM_LAT BOM_LON BOM_TYPE BOM_WIND BOM_PRES BOM_TNUM BOM_CI BOM_RMW BOM_R34_NE BOM_R34_SE BOM_R34_SW BOM_R34_NW BOM_R50_NE BOM_R50_SE BOM_R50_SW BOM_R50_NW BOM_R64_NE BOM_R64_SE BOM_R64_SW BOM_R64_NW BOM_ROCI BOM_POCI BOM_EYE BOM_POS_METHOD BOM_PRES_METHOD NADI_LAT NADI_LON NADI_CAT NADI_WIND NADI_PRES WELLINGTON_LAT WELLINGTON_LON WELLINGTON_WIND WELLINGTON_PRES DS824_LAT DS824_LON DS824_STAGE DS824_WIND DS824_PRES TD9636_LAT TD9636_LON TD9636_STAGE TD9636_WIND TD9636_PRES TD9635_LAT TD9635_LON TD9635_WIND TD9635_PRES TD9635_ROCI NEUMANN_LAT NEUMANN_LON NEUMANN_CLASS NEUMANN_WIND NEUMANN_PRES MLC_LAT MLC_LON MLC_CLASS MLC_WIND MLC_PRES USA_GUST BOM_GUST BOM_GUST_PER REUNION_GUST REUNION_GUST_PER USA_SEAHGT USA_SEARAD_NE USA_SEARAD_SE USA_SEARAD_SW USA_SEARAD_NW STORM_SPEED STORM_DIR
1901304N19293 1901 43 NA NA NOT_NAMED 1901-10-30 12:00:00 TS 19.3000 -67.3000 30 hurdat_atl main 100 100 O_____________ hurdat_atl AL131901 19.3000 -67.3000 TD 30 -1 12 5
1901304N19293 1901 43 NA NA NOT_NAMED 1901-10-30 15:00:00 TS 19.9000 -67.2476 main 167 167 P_____________ AL131901 19.9000 -67.2476 TD 30 -1 12 5
1901304N19293 1901 43 NA NA NOT_NAMED 1901-10-30 18:00:00 TS 20.5000 -67.2000 30 hurdat_atl main 234 234 O_____________ hurdat_atl AL131901 20.5000 -67.2000 TD 30 -1 12 4
1901304N19293 1901 43 NA NA NOT_NAMED 1901-10-30 21:00:00 TS 21.1000 -67.1574 main 295 295 P_____________ AL131901 21.1000 -67.1574 TD 32 -1 12 5
1901304N19293 1901 43 NA NA NOT_NAMED 1901-10-31 00:00:00 TS 21.7000 -67.1000 35 hurdat_atl main 352 352 O_____________ hurdat_atl AL131901 21.7000 -67.1000 TS 35 0 12 6
1901304N19293 1901 43 NA NA NOT_NAMED 1901-10-31 03:00:00 TS 22.3075 -67.0075 main 411 411 P_____________ AL131901 22.3075 -67.0075 TS 35 0 12 9
1901304N19293 1901 43 NA NA NOT_NAMED 1901-10-31 06:00:00 TS 22.9000 -66.9000 35 hurdat_atl main 473 473 O_____________ hurdat_atl AL131901 22.9000 -66.9000 TS 35 0 12 9
1901304N19293 1901 43 NA NA NOT_NAMED 1901-10-31 09:00:00 TS 23.4875 -66.8074 main 536 536 P_____________ AL131901 23.4875 -66.8074 TS 35 0 11 9
1901304N19293 1901 43 NA NA NOT_NAMED 1901-10-31 12:00:00 TS 24.0000 -66.7000 35 hurdat_atl main 590 590 O_____________ hurdat_atl AL131901 24.0000 -66.7000 TS 35 0 9 14
1901304N19293 1901 43 NA NA NOT_NAMED 1901-10-31 15:00:00 TS 24.3800 -66.5574 main 634 634 P_____________ AL131901 24.3800 -66.5574 TS 35 0 8 21
1901304N19293 1901 43 NA NA NOT_NAMED 1901-10-31 18:00:00 TS 24.7000 -66.4000 35 hurdat_atl main 673 673 O_____________ hurdat_atl AL131901 24.7000 -66.4000 TS 35 0 7 22
1901304N19293 1901 43 NA NA NOT_NAMED 1901-10-31 21:00:00 TS 25.0500 -66.2573 main 708 708 P_____________ AL131901 25.0500 -66.2573 TS 37 0 8 21
1901304N19293 1901 43 NA NA NOT_NAMED 1901-11-01 00:00:00 TS 25.4000 -66.1000 40 hurdat_atl main 757 757 O_____________ hurdat_atl AL131901 25.4000 -66.1000 TS 40 0 8 24
1901304N19293 1901 43 NA NA NOT_NAMED 1901-11-01 03:00:00 TS 25.7575 -65.9075 main 805 805 P_____________ AL131901 25.7575 -65.9075 TS 42 0 8 27
1901304N19293 1901 43 NA NA NOT_NAMED 1901-11-01 06:00:00 TS 26.1000 -65.7000 45 hurdat_atl main 844 844 O_____________ hurdat_atl AL131901 26.1000 -65.7000 TS 45 0 7 30
1901304N19293 1901 43 NA NA NOT_NAMED 1901-11-01 09:00:00 TS 26.4000 -65.4998 main 883 883 P_____________ AL131901 26.4000 -65.4998 TS 47 0 7 31
1901304N19293 1901 43 NA NA NOT_NAMED 1901-11-01 12:00:00 TS 26.7000 -65.3000 50 hurdat_atl main 922 922 O_____________ hurdat_atl AL131901 26.7000 -65.3000 TS 50 0 7 29
1901304N19293 1901 43 NA NA NOT_NAMED 1901-11-01 15:00:00 TS 27.0500 -65.0925 main 971 961 P_____________ AL131901 27.0500 -65.0925 TS 52 0 8 27
1901304N19293 1901 43 NA NA NOT_NAMED 1901-11-01 18:00:00 TS 27.4000 -64.9000 55 hurdat_atl main 1008 1008 O_____________ hurdat_atl AL131901 27.4000 -64.9000 TS 55 0 7 25
1901304N19293 1901 43 NA NA NOT_NAMED 1901-11-01 21:00:00 TS 27.7074 -64.7498 main 1043 1043 P_____________ AL131901 27.7074 -64.7498 TS 55 0 7 24
1901304N19293 1901 43 NA NA NOT_NAMED 1901-11-02 00:00:00 TS 28.0000 -64.6000 55 hurdat_atl main 1077 1077 O_____________ hurdat_atl AL131901 28.0000 -64.6000 TS 55 0 7 26
1901304N19293 1901 43 NA NA NOT_NAMED 1901-11-02 03:00:00 TS 28.2924 -64.4297 main 1113 1113 P_____________ AL131901 28.2924 -64.4297 TS 57 0 7 30
1901304N19293 1901 43 NA NA NOT_NAMED 1901-11-02 06:00:00 TS 28.6000 -64.2000 60 hurdat_atl main 1148 1148 O_____________ hurdat_atl AL131901 28.6000 -64.2000 TS 60 0 8 36
1901304N19293 1901 43 NA NA NOT_NAMED 1901-11-02 09:00:00 TS 28.9726 -63.8729 main 1197 1197 P_____________ AL131901 28.9726 -63.8729 TS 60 0 9 41
1901304N19293 1901 43 NA NA NOT_NAMED 1901-11-02 12:00:00 TS 29.3000 -63.5000 60 hurdat_atl main 1236 1236 O_____________ hurdat_atl AL131901 29.3000 -63.5000 TS 60 0 8 51
1901304N19293 1901 43 NA NA NOT_NAMED 1901-11-02 15:00:00 TS 29.4723 -63.1570 main 1264 1264 P_____________ AL131901 29.4723 -63.1570 TS 62 0 7 64
1901304N19293 1901 43 NA NA NOT_NAMED 1901-11-02 18:00:00 TS 29.6000 -62.8000 65 hurdat_atl main 1283 1283 O_____________ hurdat_atl AL131901 29.6000 -62.8000 HU 65 1 7 64
1901304N19293 1901 43 NA NA NOT_NAMED 1901-11-02 21:00:00 TS 29.7849 -62.4148 main 1314 1314 P_____________ AL131901 29.7849 -62.4148 HU 67 1 8 60
1901304N19293 1901 43 NA NA NOT_NAMED 1901-11-03 00:00:00 TS 30.0000 -62.0000 70 hurdat_atl main 1346 1346 O_____________ hurdat_atl AL131901 30.0000 -62.0000 HU 70 1 9 59
1901304N19293 1901 43 NA NA NOT_NAMED 1901-11-03 03:00:00 TS 30.2275 -61.5498 main 1382 1382 P_____________ AL131901 30.2275 -61.5498 HU 70 1 9 57
1901304N19293 1901 43 NA NA NOT_NAMED 1901-11-03 06:00:00 TS 30.5000 -61.1000 70 hurdat_atl main 1426 1426 O_____________ hurdat_atl AL131901 30.5000 -61.1000 HU 70 1 9 51
1901304N19293 1901 43 NA NA NOT_NAMED 1901-11-03 09:00:00 TS 30.7970 -60.7213 main 1469 1438 P_____________ AL131901 30.7970 -60.7213 HU 70 1 10 44
1901304N19293 1901 43 NA NA NOT_NAMED 1901-11-03 12:00:00 TS 31.2000 -60.3000 70 hurdat_atl main 1438 1399 O_____________ hurdat_atl AL131901 31.2000 -60.3000 HU 70 1 13 43
1901304N19293 1901 43 NA NA NOT_NAMED 1901-11-03 15:00:00 TS 31.7328 -59.7151 main 1402 1348 P_____________ AL131901 31.7328 -59.7151 HU 70 1 16 40
1901304N19293 1901 43 NA NA NOT_NAMED 1901-11-03 18:00:00 TS 32.4000 -59.1000 70 hurdat_atl main 1348 1295 O_____________ hurdat_atl AL131901 32.4000 -59.1000 HU 70 1 17 34
1901304N19293 1901 43 NA NA NOT_NAMED 1901-11-03 21:00:00 TS 33.1696 -58.5843 main 1285 1226 P_____________ AL131901 33.1696 -58.5843 HU 67 1 18 28
1901304N19293 1901 43 NA NA NOT_NAMED 1901-11-04 00:00:00 TS 34.0000 -58.1000 65 hurdat_atl main 1226 1171 O_____________ hurdat_atl AL131901 34.0000 -58.1000 HU 65 1 19 27
1901304N19293 1901 43 NA NA NOT_NAMED 1901-11-04 03:00:00 TS 34.8299 -57.5850 main 1171 1119 P_____________ AL131901 34.8299 -57.5850 HU 62 0 18 27
1901304N19293 1901 43 NA NA NOT_NAMED 1901-11-04 06:00:00 TS 35.6000 -57.1000 60 hurdat_atl main 1119 1067 O_____________ hurdat_atl AL131901 35.6000 -57.1000 TS 60 0 16 27
1901304N19293 1901 43 NA NA NOT_NAMED 1901-11-04 09:00:00 TS 36.2748 -56.6695 main 1056 1016 P_____________ AL131901 36.2748 -56.6695 TS 57 0 14 28
1901304N19293 1901 43 NA NA NOT_NAMED 1901-11-04 12:00:00 TS 36.8000 -56.3000 55 hurdat_atl main 1016 992 O_____________ hurdat_atl AL131901 36.8000 -56.3000 TS 55 0 10 33
1901304N19293 1901 43 NA NA NOT_NAMED 1901-11-04 15:00:00 TS 37.1524 -55.9543 main 985 976 P_____________ AL131901 37.1524 -55.9543 TS 52 0 8 39
1901304N19293 1901 43 NA NA NOT_NAMED 1901-11-04 18:00:00 TS 37.4000 -55.7000 50 hurdat_atl main 976 950 O_____________ hurdat_atl AL131901 37.4000 -55.7000 TS 50 0 6 29
1901304N19293 1901 43 NA NA NOT_NAMED 1901-11-04 21:00:00 TS 37.6648 -55.5919 main 950 934 P_____________ AL131901 37.6648 -55.5919 TS 50 0 5 18
1901304N19293 1901 43 NA NA NOT_NAMED 1901-11-05 00:00:00 TS 37.9000 -55.5000 50 hurdat_atl main 934 919 O_____________ hurdat_atl AL131901 37.9000 -55.5000 TS 50 0 5 29
1901304N19293 1901 43 NA NA NOT_NAMED 1901-11-05 03:00:00 TS 38.1226 -55.2727 main 923 913 P_____________ AL131901 38.1226 -55.2727 TS 50 0 6 45
1901304N19293 1901 43 NA NA NOT_NAMED 1901-11-05 06:00:00 TS 38.3000 -55.0000 50 hurdat_atl main 917 912 O_____________ hurdat_atl AL131901 38.3000 -55.0000 TS 50 0 5 49
1901304N19293 1901 43 NA NA NOT_NAMED 1901-11-05 09:00:00 TS 38.4445 -54.7952 main 917 903 P_____________ AL131901 38.4445 -54.7952 TS 47 0 4 63
1901304N19293 1901 43 NA NA NOT_NAMED 1901-11-05 12:00:00 TS 38.5000 -54.5000 45 hurdat_atl main 903 901 O_____________ hurdat_atl AL131901 38.5000 -54.5000 TS 45 0 6 89
1901304N19293 1901 43 NA NA NOT_NAMED 1901-11-05 15:00:00 TS 38.4529 -53.9799 main 901 901 P_____________ AL131901 38.4529 -53.9799 TS 45 0 9 103
1901304N19293 1901 43 NA NA NOT_NAMED 1901-11-05 18:00:00 TS 38.3000 -53.4000 45 hurdat_atl main 923 923 O_____________ hurdat_atl AL131901 38.3000 -53.4000 TS 45 0 9 115
1901304N19293 1901 43 NA NA NOT_NAMED 1901-11-05 21:00:00 TS 38.0721 -52.9426 main 945 945 P_____________ AL131901 38.0721 -52.9426 TS 42 0 9 125
1901304N19293 1901 43 NA NA NOT_NAMED 1901-11-06 00:00:00 ET 37.8000 -52.5000 40 hurdat_atl main 980 980 O_____________ hurdat_atl AL131901 37.8000 -52.5000 EX 40 -4 9 126
1901304N19293 1901 43 NA NA NOT_NAMED 1901-11-06 03:00:00 ET 37.5349 -52.0075 main 1016 1016 P_____________ AL131901 37.5349 -52.0075 EX 40 -4 9 122
1901304N19293 1901 43 NA NA NOT_NAMED 1901-11-06 06:00:00 ET 37.3000 -51.5000 40 hurdat_atl main 1043 1043 O_____________ hurdat_atl AL131901 37.3000 -51.5000 EX 40 -4 9 118
1901304N19293 1901 43 NA NA NOT_NAMED 1901-11-06 09:00:00 ET 37.1120 -51.0226 main 1072 1072 P_____________ AL131901 37.1120 -51.0226 EX 37 -4 9 111
1901304N19293 1901 43 NA NA NOT_NAMED 1901-11-06 12:00:00 ET 37.0000 -50.5000 35 hurdat_atl main 1090 1090 O_____________ hurdat_atl AL131901 37.0000 -50.5000 EX 35 -4 9 98
1901304N19293 1901 43 NA NA NOT_NAMED 1901-11-06 15:00:00 ET 36.9760 -49.8803 main 1101 1101 P_____________ AL131901 36.9760 -49.8803 EX 32 -4 10 90
1901304N19293 1901 43 NA NA NOT_NAMED 1901-11-06 18:00:00 ET 37.0000 -49.2000 30 hurdat_atl main 1117 O_____________ hurdat_atl AL131901 37.0000 -49.2000 EX 30 -4 11 87

About IBTrACS Database

This database is a web-friendly format of International Best Track Archive for Climate Stewardship (IBTrACS), a global best track data archive curated by NOAA dating back to 1842.

Updated: 2021-10-19